Morrisdale, Pennsylvania
Current Conditions -  °F | °C
As of 11:54 PM on Monday 22 Dec 2014 (Local Time) from KFIG Reporting Station
Overcast Overcast  
Wind Chill: 26°   Ceiling: 1000
Heat Index: 31°   Visibility: 7mi
Dew Point: 30°   Wind: 5mph
Humidity: 96%   Direction: 20°NNE
Pressure: 30.05"   Gusts: NA
Location:  40.95°N, 78.23°W
Report Text: KFIG 230454Z AUTO 02004KT 7SM OVC010 M01/M01 A3005 RMK AO2 SLP192 T10061011 400171078
Loading
Personal Weather Stations






























Interactive Weather Map New forecast layout! Learn more

10-Day Weather Forecast

Advertisements
Track Severe Weather on mobile